Time;durP1;ratioP1;P1;durP2;ratioP2;P2;SDS_P1;SDS_P2;PMS_P1;PMS_P2;Temp;Humidity;BMP_temperature;BMP_pressure;BME280_temperature;BME280_humidity;BME280_pressure;Samples;Min_cycle;Max_cycle;Signal;HPM_P1;HPM_P2
2022/06/21 00:00:05;;;;;;;3.45;1.80;;;;;;;;;;4976415;28;20335;-76
2022/06/21 00:02:31;;;;;;;3.83;1.70;;;;;;;;;;4976093;28;20018;-76
2022/06/21 00:04:56;;;;;;;4.40;1.90;;;;;;;;;;4976106;28;20065;-76
2022/06/21 00:07:24;;;;;;;4.22;1.70;;;;;;;;;;4959704;28;20125;-76
2022/06/21 00:09:50;;;;;;;4.75;1.70;;;;;;;;;;4975638;28;20034;-76
2022/06/21 00:12:15;;;;;;;3.33;1.77;;;;;;;;;;4993537;28;20041;-76
2022/06/21 00:14:41;;;;;;;2.53;1.60;;;;;;;;;;4976084;28;20038;-76
2022/06/21 00:17:12;;;;;;;3.22;2.00;;;;;;;;;;4975858;28;20046;-76
2022/06/21 00:19:38;;;;;;;4.40;2.17;;;;;;;;;;4975668;28;20022;-76
2022/06/21 00:22:04;;;;;;;3.20;1.67;;;;;;;;;;4959485;28;20045;-77
2022/06/21 00:24:30;;;;;;;3.75;2.03;;;;;;;;;;4992983;28;20061;-76
2022/06/21 00:26:55;;;;;;;3.70;1.90;;;;;;;;;;4993291;28;20038;-76
2022/06/21 00:29:20;;;;;;;4.10;1.85;;;;;;;;;;4993325;28;20042;-76
2022/06/21 00:31:48;;;;;;;3.63;1.83;;;;;;;;;;4993165;28;20056;-76
2022/06/21 00:34:20;;;;;;;3.65;1.80;;;;;;;;;;4975634;28;20030;-76
2022/06/21 00:36:46;;;;;;;3.13;1.65;;;;;;;;;;4975515;28;20023;-77
2022/06/21 00:39:16;;;;;;;4.07;2.08;;;;;;;;;;4975575;28;20022;-77
2022/06/21 00:41:53;;;;;;;3.38;1.98;;;;;;;;;;4975322;28;20026;-77
2022/06/21 00:44:30;;;;;;;2.88;1.90;;;;;;;;;;4975442;28;20054;-77
2022/06/21 00:47:12;;;;;;;3.22;2.00;;;;;;;;;;4975804;28;20067;-76
2022/06/21 00:49:55;;;;;;;3.45;1.85;;;;;;;;;;4975475;28;20026;-76
2022/06/21 00:52:26;;;;;;;3.47;2.10;;;;;;;;;;4959937;28;20084;-77
2022/06/21 00:55:04;;;;;;;3.63;2.10;;;;;;;;;;4975663;28;20518;-76
2022/06/21 00:57:37;;;;;;;5.25;2.42;;;;;;;;;;4975263;28;20081;-76
2022/06/21 01:00:46;;;;;;;2.40;2.00;;;;;;;;;;4975569;28;20022;-76
2022/06/21 01:03:15;;;;;;;3.50;2.10;;;;;;;;;;4981982;28;20042;-77
2022/06/21 01:05:43;;;;;;;4.95;2.20;;;;;;;;;;4975534;28;20022;-76
2022/06/21 01:08:11;;;;;;;3.30;1.88;;;;;;;;;;4958986;28;20026;-76
2022/06/21 01:10:36;;;;;;;3.50;2.00;;;;;;;;;;4975191;28;20046;-76
2022/06/21 01:13:05;;;;;;;3.60;2.05;;;;;;;;;;4975554;28;20042;-76
2022/06/21 01:15:33;;;;;;;2.13;1.83;;;;;;;;;;4975343;28;20030;-77
2022/06/21 01:18:02;;;;;;;2.10;1.85;;;;;;;;;;4975157;28;20028;-76
2022/06/21 01:20:32;;;;;;;2.80;1.83;;;;;;;;;;4975279;28;20026;-76
2022/06/21 01:23:04;;;;;;;2.67;1.77;;;;;;;;;;4976823;28;20083;-76
2022/06/21 01:25:52;;;;;;;3.63;2.40;;;;;;;;;;4978658;28;20364;-76
2022/06/21 01:28:18;;;;;;;2.70;1.70;;;;;;;;;;4979082;28;20092;-77
2022/06/21 01:30:46;;;;;;;4.93;2.13;;;;;;;;;;4979306;28;20098;-76
2022/06/21 01:33:16;;;;;;;5.50;2.03;;;;;;;;;;4962555;28;20033;-76
2022/06/21 01:35:47;;;;;;;2.70;2.03;;;;;;;;;;4996345;28;20534;-77
2022/06/21 01:38:20;;;;;;;2.50;1.73;;;;;;;;;;4978689;28;20030;-76
2022/06/21 01:40:49;;;;;;;2.58;2.00;;;;;;;;;;4978718;28;20030;-76
2022/06/21 01:43:17;;;;;;;4.47;1.80;;;;;;;;;;4978889;28;20112;-76
2022/06/21 01:45:48;;;;;;;3.70;2.15;;;;;;;;;;4978466;28;20027;-76
2022/06/21 01:48:24;;;;;;;2.80;2.10;;;;;;;;;;4978708;28;20389;-76
2022/06/21 01:50:53;;;;;;;2.97;2.10;;;;;;;;;;4978700;28;20029;-76
2022/06/21 01:53:22;;;;;;;4.10;1.85;;;;;;;;;;4978351;28;20026;-76
2022/06/21 01:56:00;;;;;;;4.32;1.83;;;;;;;;;;4995774;28;20482;-76
2022/06/21 01:58:41;;;;;;;3.20;1.95;;;;;;;;;;4962121;28;20036;-76
2022/06/21 02:01:33;;;;;;;5.25;2.15;;;;;;;;;;4978477;28;20061;-76
2022/06/21 02:04:01;;;;;;;3.65;1.88;;;;;;;;;;4978196;28;20080;-76
2022/06/21 02:06:30;;;;;;;3.65;2.10;;;;;;;;;;4962065;28;20031;-76
2022/06/21 02:09:02;;;;;;;3.00;1.90;;;;;;;;;;4978079;28;20514;-77
2022/06/21 02:11:32;;;;;;;3.33;1.70;;;;;;;;;;4978374;28;20430;-76
2022/06/21 02:16:48;;;;;;;2.83;2.00;;;;;;;;;;4995700;28;20398;-76
2022/06/21 02:19:24;;;;;;;2.10;1.83;;;;;;;;;;4978409;28;20022;-77
2022/06/21 02:21:50;;;;;;;2.42;1.80;;;;;;;;;;4977720;28;20364;-76
2022/06/21 02:24:15;;;;;;;2.80;1.90;;;;;;;;;;4961619;28;20120;-76
2022/06/21 02:26:41;;;;;;;2.60;1.98;;;;;;;;;;4977874;28;20093;-77
2022/06/21 02:29:08;;;;;;;2.22;1.70;;;;;;;;;;4978030;28;20089;-76
2022/06/21 02:31:34;;;;;;;3.40;1.90;;;;;;;;;;4961750;28;20121;-76
2022/06/21 02:34:04;;;;;;;10.65;1.80;;;;;;;;;;4977456;28;20061;-76
2022/06/21 02:36:33;;;;;;;2.80;2.08;;;;;;;;;;4977769;28;20092;-76
2022/06/21 02:39:02;;;;;;;2.70;1.95;;;;;;;;;;4977602;28;20030;-77
2022/06/21 02:41:35;;;;;;;3.85;2.03;;;;;;;;;;4977547;28;20034;-76
2022/06/21 02:44:08;;;;;;;4.18;1.80;;;;;;;;;;4961513;28;20031;-76
2022/06/21 02:46:36;;;;;;;3.22;2.00;;;;;;;;;;4977804;28;20022;-76
2022/06/21 02:49:07;;;;;;;3.13;1.90;;;;;;;;;;4977475;28;20029;-76
2022/06/21 02:51:44;;;;;;;3.58;1.90;;;;;;;;;;4977414;28;20029;-76
2022/06/21 02:54:15;;;;;;;2.75;1.90;;;;;;;;;;4961255;28;20056;-76
2022/06/21 02:56:47;;;;;;;6.28;2.25;;;;;;;;;;4994597;28;20098;-77
2022/06/21 02:59:14;;;;;;;3.70;1.92;;;;;;;;;;4961162;28;20038;-76
2022/06/21 03:01:42;;;;;;;4.45;1.80;;;;;;;;;;4977210;28;20057;-76
2022/06/21 03:04:16;;;;;;;6.78;2.28;;;;;;;;;;4977023;28;20094;-76
2022/06/21 03:06:42;;;;;;;3.15;1.90;;;;;;;;;;4977304;28;20105;-76
2022/06/21 03:09:11;;;;;;;3.75;1.98;;;;;;;;;;4976692;28;20109;-76
2022/06/21 03:11:41;;;;;;;4.95;1.75;;;;;;;;;;4977044;28;20042;-75
2022/06/21 03:14:12;;;;;;;2.65;1.83;;;;;;;;;;4976731;28;20035;-76
2022/06/21 03:16:38;;;;;;;5.50;2.03;;;;;;;;;;4976730;28;20423;-76
2022/06/21 03:19:07;;;;;;;2.72;2.00;;;;;;;;;;4960697;28;20080;-76
2022/06/21 03:21:34;;;;;;;3.45;1.92;;;;;;;;;;4976763;28;20475;-75
2022/06/21 03:24:03;;;;;;;3.28;2.10;;;;;;;;;;4976445;28;20057;-77
2022/06/21 03:26:29;;;;;;;3.45;1.63;;;;;;;;;;4976752;28;20030;-77
2022/06/21 03:28:54;;;;;;;3.38;1.70;;;;;;;;;;4976747;28;20414;-77
2022/06/21 03:31:23;;;;;;;3.13;2.05;;;;;;;;;;4960726;28;20084;-75
2022/06/21 03:33:53;;;;;;;3.30;1.90;;;;;;;;;;4977125;28;20034;-78
2022/06/21 03:36:25;;;;;;;2.58;1.50;;;;;;;;;;4976826;28;20105;-75
2022/06/21 03:39:05;;;;;;;3.88;2.28;;;;;;;;;;4960239;28;20030;-78
2022/06/21 03:41:43;;;;;;;2.83;1.90;;;;;;;;;;4976240;28;20034;-76
2022/06/21 03:44:32;;;;;;;2.80;1.98;;;;;;;;;;4978339;28;20034;-77
2022/06/21 03:47:10;;;;;;;1.88;1.60;;;;;;;;;;4959764;28;20048;-76
2022/06/21 03:50:06;;;;;;;3.78;1.90;;;;;;;;;;4960069;28;20130;-76
2022/06/21 03:52:52;;;;;;;3.08;1.80;;;;;;;;;;4968037;28;20084;-76
2022/06/21 03:55:31;;;;;;;2.35;1.85;;;;;;;;;;4976133;28;20442;-77
2022/06/21 03:58:21;;;;;;;4.97;2.30;;;;;;;;;;4976034;28;20030;-76
2022/06/21 04:00:55;;;;;;;5.45;1.98;;;;;;;;;;4976236;28;20030;-76
2022/06/21 04:03:25;;;;;;;;;;;;;;;;;;4960519;28;20030;-76
2022/06/21 04:06:23;;;;;;;2.85;2.03;;;;;;;;;;4975929;28;19980;-76
2022/06/21 04:08:54;;;;;;;2.58;1.70;;;;;;;;;;4975889;28;20026;-76
2022/06/21 04:11:23;;;;;;;3.35;1.90;;;;;;;;;;4993685;28;20036;-76
2022/06/21 04:14:11;;;;;;;4.57;2.10;;;;;;;;;;4993238;28;20032;-77
2022/06/21 04:16:42;;;;;;;6.35;2.60;;;;;;;;;;4959796;28;20037;-78
2022/06/21 04:19:14;;;;;;;8.52;3.20;;;;;;;;;;4975651;28;20022;-77
2022/06/21 04:21:53;;;;;;;6.10;2.90;;;;;;;;;;4992978;28;20026;-77
2022/06/21 04:24:35;;;;;;;7.88;2.80;;;;;;;;;;4975996;28;20137;-78
2022/06/21 04:27:06;;;;;;;6.93;2.95;;;;;;;;;;4993039;28;20041;-78
2022/06/21 04:29:36;;;;;;;5.80;2.90;;;;;;;;;;4974583;28;20022;-77
2022/06/21 04:32:07;;;;;;;13.52;4.50;;;;;;;;;;4975018;28;20395;-77
2022/06/21 04:34:46;;;;;;;11.82;4.00;;;;;;;;;;4992693;28;20045;-78
2022/06/21 04:37:16;;;;;;;10.45;3.92;;;;;;;;;;4975163;28;20085;-79
2022/06/21 04:39:47;;;;;;;9.68;3.38;;;;;;;;;;4992703;28;20034;-78
2022/06/21 04:42:12;;;;;;;9.18;3.10;;;;;;;;;;4975169;28;20033;-77
2022/06/21 04:45:01;;;;;;;5.15;2.28;;;;;;;;;;4992332;28;20026;-78
2022/06/21 04:47:38;;;;;;;6.82;2.60;;;;;;;;;;4975159;28;20117;-78
2022/06/21 04:50:31;;;;;;;9.35;2.90;;;;;;;;;;4975107;28;20058;-77
2022/06/21 04:53:13;;;;;;;5.63;2.45;;;;;;;;;;4965373;28;20046;-79
2022/06/21 04:56:03;;;;;;;5.82;2.42;;;;;;;;;;4958924;28;20474;-78
2022/06/21 04:58:29;;;;;;;3.05;1.75;;;;;;;;;;4980275;28;20105;-78
2022/06/21 05:00:55;;;;;;;3.80;2.15;;;;;;;;;;4997331;28;20397;-78
2022/06/21 05:03:29;;;;;;;4.15;2.30;;;;;;;;;;4963535;28;20109;-78
2022/06/21 05:05:55;;;;;;;9.82;3.60;;;;;;;;;;4964491;28;20030;-78
2022/06/21 05:08:22;;;;;;;14.48;3.97;;;;;;;;;;4963226;28;20383;-77
2022/06/21 05:10:51;;;;;;;10.63;3.55;;;;;;;;;;4963364;28;20046;-77
2022/06/21 05:13:24;;;;;;;16.48;4.03;;;;;;;;;;4979369;28;20042;-79
2022/06/21 05:15:49;;;;;;;;;;;;;;;;;;4980959;28;20030;-78
2022/06/21 05:18:26;;;;;;;10.27;2.53;;;;;;;;;;4963972;28;19944;-77
2022/06/21 05:20:56;;;;;;;13.07;3.33;;;;;;;;;;4979632;28;20077;-76
2022/06/21 05:23:23;;;;;;;19.13;3.65;;;;;;;;;;4979877;28;20116;-77
2022/06/21 05:25:49;;;;;;;10.90;2.90;;;;;;;;;;4979687;28;20108;-76
2022/06/21 05:28:26;;;;;;;9.23;2.88;;;;;;;;;;4963767;28;20030;-77
2022/06/21 05:31:06;;;;;;;9.80;3.10;;;;;;;;;;4980464;28;20467;-76
2022/06/21 05:33:39;;;;;;;7.45;2.70;;;;;;;;;;4996963;28;20037;-75
2022/06/21 05:36:09;;;;;;;6.43;2.65;;;;;;;;;;4980342;28;20026;-76
2022/06/21 05:38:36;;;;;;;11.15;3.10;;;;;;;;;;4979798;28;20034;-76
2022/06/21 05:41:31;;;;;;;7.78;2.40;;;;;;;;;;4979649;28;20045;-76
2022/06/21 05:44:02;;;;;;;5.53;2.53;;;;;;;;;;4990148;28;20399;-76
2022/06/21 05:46:29;;;;;;;6.32;2.38;;;;;;;;;;4963695;28;20022;-76
2022/06/21 05:48:56;;;;;;;9.60;2.63;;;;;;;;;;4996735;28;20023;-77
2022/06/21 05:51:28;;;;;;;6.90;2.05;;;;;;;;;;4978975;28;20106;-76
2022/06/21 05:54:06;;;;;;;8.82;2.53;;;;;;;;;;4979229;28;20411;-77
2022/06/21 05:56:34;;;;;;;5.57;2.10;;;;;;;;;;4962374;28;20030;-76
2022/06/21 05:59:09;;;;;;;8.65;2.42;;;;;;;;;;4979083;28;20045;-77
2022/06/21 06:01:44;;;;;;;6.07;2.60;;;;;;;;;;4978862;28;20037;-77
2022/06/21 06:04:20;;;;;;;5.05;2.13;;;;;;;;;;4978960;28;20362;-76
2022/06/21 06:06:47;;;;;;;5.40;1.80;;;;;;;;;;4962834;28;20032;-76
2022/06/21 06:09:22;;;;;;;4.38;1.98;;;;;;;;;;4995638;28;20339;-76
2022/06/21 06:12:00;;;;;;;2.92;1.48;;;;;;;;;;4962635;28;20030;-77
2022/06/21 06:14:39;;;;;;;4.15;1.75;;;;;;;;;;4963038;28;20049;-77
2022/06/21 06:17:28;;;;;;;5.93;1.90;;;;;;;;;;4962610;28;20022;-76
2022/06/21 06:20:43;;;;;;;4.00;1.77;;;;;;;;;;4978699;28;20026;-76
2022/06/21 06:23:11;;;;;;;4.63;1.77;;;;;;;;;;4886130;29;20031;-77
2022/06/21 06:25:46;;;;;;;3.30;1.63;;;;;;;;;;4901099;29;20421;-76
2022/06/21 06:28:35;;;;;;;3.17;1.50;;;;;;;;;;4897731;29;20052;-76
2022/06/21 06:31:11;;;;;;;4.68;1.65;;;;;;;;;;4866720;29;20048;-76
2022/06/21 06:34:01;;;;;;;4.15;1.33;;;;;;;;;;4881995;29;20041;-76
2022/06/21 06:36:30;;;;;;;2.58;1.40;;;;;;;;;;4874880;29;20063;-76
2022/06/21 06:38:58;;;;;;;4.38;1.50;;;;;;;;;;4882621;29;20504;-78
2022/06/21 06:41:30;;;;;;;3.88;1.48;;;;;;;;;;4882462;29;20184;-76
2022/06/21 06:44:02;;;;;;;9.70;1.40;;;;;;;;;;4881742;29;20032;-76
2022/06/21 06:46:40;;;;;;;3.30;1.20;;;;;;;;;;4866289;29;20191;-79
2022/06/21 06:49:17;;;;;;;2.95;1.33;;;;;;;;;;4882704;29;20028;-78
2022/06/21 06:51:57;;;;;;;2.92;1.45;;;;;;;;;;4883153;29;20342;-77
2022/06/21 06:54:42;;;;;;;3.28;1.30;;;;;;;;;;4942833;28;20058;-78
2022/06/21 06:57:20;;;;;;;3.20;1.40;;;;;;;;;;4958962;28;20085;-79
2022/06/21 06:59:45;;;;;;;2.70;1.33;;;;;;;;;;4958930;28;20023;-79
2022/06/21 07:02:17;;;;;;;2.38;1.40;;;;;;;;;;4942504;28;20054;-79
2022/06/21 07:04:45;;;;;;;5.80;1.38;;;;;;;;;;4976792;28;20054;-78
2022/06/21 07:07:39;;;;;;;2.83;1.38;;;;;;;;;;4959216;28;20034;-78
2022/06/21 07:10:08;;;;;;;3.33;1.42;;;;;;;;;;4953091;28;20123;-77
2022/06/21 07:12:34;;;;;;;2.50;1.30;;;;;;;;;;4959118;28;20038;-80
2022/06/21 07:14:59;;;;;;;2.83;1.20;;;;;;;;;;4958442;28;20432;-78
2022/06/21 07:17:40;;;;;;;2.47;1.23;;;;;;;;;;4958299;28;20460;-78
2022/06/21 07:20:14;;;;;;;2.70;1.23;;;;;;;;;;4941118;28;20031;-77
2022/06/21 07:22:39;;;;;;;4.07;1.45;;;;;;;;;;4958094;28;20029;-78
2022/06/21 07:25:42;;;;;;;4.10;1.15;;;;;;;;;;4969975;28;20054;-78
2022/06/21 07:28:32;;;;;;;2.17;1.23;;;;;;;;;;4977148;28;20129;-78
2022/06/21 07:31:01;;;;;;;2.65;1.30;;;;;;;;;;4994556;28;20026;-80
2022/06/21 07:33:47;;;;;;;5.57;1.45;;;;;;;;;;4977105;28;20033;-80
2022/06/21 07:36:19;;;;;;;8.10;3.10;;;;;;;;;;4960661;28;20030;-79
2022/06/21 07:38:59;;;;;;;12.15;3.40;;;;;;;;;;4976896;28;20360;-78
2022/06/21 07:41:32;;;;;;;5.30;1.63;;;;;;;;;;4960583;28;20030;-78
2022/06/21 07:44:04;;;;;;;6.30;1.90;;;;;;;;;;4960889;28;20026;-78
2022/06/21 07:46:43;;;;;;;10.65;2.22;;;;;;;;;;4976609;28;20030;-76
2022/06/21 07:49:23;;;;;;;4.75;1.55;;;;;;;;;;4976950;28;20049;-76
2022/06/21 07:51:52;;;;;;;2.65;1.23;;;;;;;;;;4976954;28;20022;-75
2022/06/21 07:54:22;;;;;;;3.55;1.63;;;;;;;;;;4961304;28;20030;-75
2022/06/21 07:56:53;;;;;;;5.30;1.60;;;;;;;;;;4961795;28;20050;-76
2022/06/21 07:59:43;;;;;;;3.35;1.40;;;;;;;;;;4976420;28;20109;-76
2022/06/21 08:06:41;;;;;;;2.92;1.38;;;;;;;;;;4979198;28;20041;-78
2022/06/21 08:08:37;;;;;;;1.65;1.05;;;;;;;;;;4981410;28;20109;-77
2022/06/21 08:11:09;;;;;;;3.22;1.40;;;;;;;;;;4976649;28;20026;-76
2022/06/21 08:13:35;;;;;;;3.73;1.37;;;;;;;;;;4976481;28;20173;-76
2022/06/21 08:16:06;;;;;;;3.78;1.50;;;;;;;;;;4979569;28;20054;-76
2022/06/21 08:18:57;;;;;;;3.00;1.30;;;;;;;;;;4981700;28;20106;-76
2022/06/21 08:21:29;;;;;;;1.50;1.00;;;;;;;;;;4986625;28;20030;-76
2022/06/21 08:24:04;;;;;;;1.53;1.10;;;;;;;;;;4994007;28;20026;-76
2022/06/21 08:26:35;;;;;;;1.08;0.85;;;;;;;;;;4975669;28;20131;-77
2022/06/21 08:29:11;;;;;;;1.73;1.05;;;;;;;;;;4987277;28;20025;-76
2022/06/21 08:31:39;;;;;;;2.38;1.10;;;;;;;;;;4979357;28;20077;-76
2022/06/21 08:34:31;;;;;;;2.05;1.17;;;;;;;;;;4980577;28;20061;-77
2022/06/21 08:37:01;;;;;;;2.42;0.90;;;;;;;;;;4989351;28;20054;-77
2022/06/21 08:39:45;;;;;;;2.10;0.90;;;;;;;;;;4989054;28;20038;-75
2022/06/21 08:42:28;;;;;;;2.10;1.13;;;;;;;;;;5003218;28;20049;-77
2022/06/21 08:45:41;;;;;;;2.20;1.10;;;;;;;;;;4978602;28;20482;-76
2022/06/21 08:48:10;;;;;;;1.48;0.80;;;;;;;;;;4986791;28;20073;-76
2022/06/21 08:50:39;;;;;;;2.53;1.10;;;;;;;;;;4994415;28;20018;-77
2022/06/21 08:53:10;;;;;;;1.38;0.98;;;;;;;;;;4994506;28;20030;-76
2022/06/21 08:56:05;;;;;;;2.13;1.00;;;;;;;;;;4994023;28;20433;-76
2022/06/21 08:58:52;;;;;;;2.92;0.90;;;;;;;;;;4977392;28;20033;-76
2022/06/21 09:01:59;;;;;;;1.23;0.70;;;;;;;;;;4976554;28;20037;-76
2022/06/21 09:04:37;;;;;;;1.02;0.77;;;;;;;;;;4951375;28;20030;-76
2022/06/21 09:07:33;;;;;;;1.35;0.90;;;;;;;;;;4961400;28;20061;-76
2022/06/21 09:10:27;;;;;;;1.30;1.00;;;;;;;;;;4977135;28;20037;-76
2022/06/21 09:13:05;;;;;;;;;;;;;;;;;;4995149;28;20026;-76
2022/06/21 09:15:43;;;;;;;2.72;0.95;;;;;;;;;;4976562;28;19909;-76
2022/06/21 09:18:21;;;;;;;2.03;1.00;;;;;;;;;;4976931;28;20030;-76
2022/06/21 09:21:06;;;;;;;2.05;0.90;;;;;;;;;;4976803;28;20034;-76
2022/06/21 09:23:49;;;;;;;1.65;0.80;;;;;;;;;;4994263;28;20035;-76
2022/06/21 09:26:44;;;;;;;2.17;1.02;;;;;;;;;;4977181;28;20492;-76
2022/06/21 09:29:26;;;;;;;1.08;0.80;;;;;;;;;;4979004;28;20030;-76
2022/06/21 09:32:10;;;;;;;2.20;1.10;;;;;;;;;;4979209;28;20450;-76
2022/06/21 09:34:50;;;;;;;3.53;1.02;;;;;;;;;;4979351;28;20030;-76
2022/06/21 09:37:22;;;;;;;1.23;0.80;;;;;;;;;;4977053;28;20022;-76
2022/06/21 09:40:09;;;;;;;4.40;1.15;;;;;;;;;;4976712;28;20065;-76
2022/06/21 09:43:11;;;;;;;2.58;1.00;;;;;;;;;;4994503;28;20042;-77
2022/06/21 09:45:48;;;;;;;2.15;1.00;;;;;;;;;;4980574;28;20049;-76
2022/06/21 09:48:31;;;;;;;1.85;0.80;;;;;;;;;;4979424;28;20474;-76
2022/06/21 09:51:04;;;;;;;1.70;0.93;;;;;;;;;;4979122;28;20030;-77
2022/06/21 09:53:50;;;;;;;2.10;0.90;;;;;;;;;;4978749;28;20037;-78
2022/06/21 09:56:44;;;;;;;3.58;1.00;;;;;;;;;;4979062;28;20036;-78
2022/06/21 09:59:20;;;;;;;3.10;1.13;;;;;;;;;;4978789;28;20129;-78
2022/06/21 10:02:06;;;;;;;3.03;1.00;;;;;;;;;;4996297;28;20451;-78
2022/06/21 10:04:40;;;;;;;1.63;0.93;;;;;;;;;;4979152;28;20034;-77
2022/06/21 10:07:39;;;;;;;2.75;0.90;;;;;;;;;;4996497;28;20027;-77
2022/06/21 10:10:40;;;;;;;1.20;1.02;;;;;;;;;;4996592;28;20029;-78
2022/06/21 10:13:10;;;;;;;2.58;1.00;;;;;;;;;;4978678;28;20573;-78
2022/06/21 10:15:48;;;;;;;1.00;0.85;;;;;;;;;;4962549;28;20120;-77
2022/06/21 10:18:32;;;;;;;3.25;1.00;;;;;;;;;;4978383;28;20030;-77
2022/06/21 10:21:11;;;;;;;1.80;0.95;;;;;;;;;;4995871;28;20102;-77
2022/06/21 10:24:01;;;;;;;5.65;1.02;;;;;;;;;;4963306;28;20037;-78
2022/06/21 10:26:42;;;;;;;1.17;1.05;;;;;;;;;;4979524;28;20030;-77
2022/06/21 10:29:39;;;;;;;3.72;0.95;;;;;;;;;;4978934;28;20064;-76
2022/06/21 10:32:42;;;;;;;1.23;0.82;;;;;;;;;;4912738;28;20483;-77
2022/06/21 10:35:46;;;;;;;1.73;0.88;;;;;;;;;;4979854;28;20030;-77
2022/06/21 10:38:21;;;;;;;3.65;0.93;;;;;;;;;;4996028;28;20451;-77
2022/06/21 10:40:58;;;;;;;2.00;0.70;;;;;;;;;;4979499;28;20116;-77
2022/06/21 10:43:34;;;;;;;1.40;1.02;;;;;;;;;;4962022;28;20030;-76
2022/06/21 10:46:09;;;;;;;1.95;1.02;;;;;;;;;;4995820;28;20085;-76
2022/06/21 10:48:50;;;;;;;2.40;1.15;;;;;;;;;;4962615;28;20038;-76
2022/06/21 10:51:24;;;;;;;1.60;0.85;;;;;;;;;;4995925;28;20097;-77
2022/06/21 10:54:28;;;;;;;1.42;0.93;;;;;;;;;;4995953;28;20041;-77
2022/06/21 10:57:31;;;;;;;2.00;0.90;;;;;;;;;;4977581;28;20133;-77
2022/06/21 11:02:59;;;;;;;1.15;0.70;;;;;;;;;;4994999;28;20539;-78
2022/06/21 11:05:46;;;;;;;2.45;0.82;;;;;;;;;;4995292;28;20061;-78
2022/06/21 11:08:29;;;;;;;2.20;0.90;;;;;;;;;;4961215;28;20502;-77
2022/06/21 11:11:06;;;;;;;2.03;0.80;;;;;;;;;;4995427;28;20454;-77
2022/06/21 11:13:40;;;;;;;2.25;1.17;;;;;;;;;;4961779;28;20093;-77
2022/06/21 11:16:15;;;;;;;1.80;0.82;;;;;;;;;;4978058;28;20109;-77
2022/06/21 11:18:45;;;;;;;3.83;1.13;;;;;;;;;;4977318;28;20059;-77
2022/06/21 11:21:21;;;;;;;2.67;0.90;;;;;;;;;;4995929;28;20030;-77
2022/06/21 11:24:12;;;;;;;2.55;0.95;;;;;;;;;;4977162;28;20030;-77
2022/06/21 11:26:59;;;;;;;3.83;1.00;;;;;;;;;;4995452;28;20033;-76
2022/06/21 11:29:44;;;;;;;5.32;1.10;;;;;;;;;;4996088;28;20109;-78
2022/06/21 11:32:24;;;;;;;3.10;1.08;;;;;;;;;;4995412;28;20027;-77
2022/06/21 11:35:26;;;;;;;1.95;0.90;;;;;;;;;;4977405;28;20371;-78
2022/06/21 11:38:20;;;;;;;1.48;0.93;;;;;;;;;;4994896;28;20030;-77
2022/06/21 11:41:09;;;;;;;5.47;1.10;;;;;;;;;;4991773;28;20490;-78
2022/06/21 11:44:01;;;;;;;2.75;1.00;;;;;;;;;;4997663;28;20074;-78
2022/06/21 11:46:40;;;;;;;4.82;1.13;;;;;;;;;;4976764;28;20030;-77
2022/06/21 11:49:50;;;;;;;6.20;1.30;;;;;;;;;;4977074;28;20045;-77
2022/06/21 11:52:28;;;;;;;4.40;0.80;;;;;;;;;;4979604;28;20113;-78
2022/06/21 11:54:59;;;;;;;2.30;0.80;;;;;;;;;;4996103;28;20391;-76
2022/06/21 11:57:41;;;;;;;3.75;0.82;;;;;;;;;;4994956;28;20540;-77
2022/06/21 12:00:15;;;;;;;9.45;1.10;;;;;;;;;;4981652;28;20072;-77
2022/06/21 12:02:49;;;;;;;2.15;1.05;;;;;;;;;;4980985;28;20030;-77
2022/06/21 12:05:33;;;;;;;3.35;1.15;;;;;;;;;;4977998;28;20026;-77
2022/06/21 12:08:08;;;;;;;4.22;1.08;;;;;;;;;;4977111;28;20088;-77
2022/06/21 12:11:01;;;;;;;2.70;0.80;;;;;;;;;;4960963;28;20046;-77
2022/06/21 12:13:54;;;;;;;3.95;0.90;;;;;;;;;;4948408;28;20128;-77
2022/06/21 12:16:34;;;;;;;3.38;0.90;;;;;;;;;;4993623;28;20033;-77
2022/06/21 12:19:03;;;;;;;3.90;0.80;;;;;;;;;;4960063;28;20117;-75
2022/06/21 12:21:31;;;;;;;2.45;0.70;;;;;;;;;;4975821;28;20113;-76
2022/06/21 12:24:05;;;;;;;2.78;0.80;;;;;;;;;;4960432;28;20054;-76
2022/06/21 12:26:33;;;;;;;3.05;0.80;;;;;;;;;;4976860;28;20368;-76
2022/06/21 12:29:00;;;;;;;1.98;0.98;;;;;;;;;;4961632;28;20026;-75
2022/06/21 12:31:33;;;;;;;3.63;1.17;;;;;;;;;;4960270;28;20030;-77
2022/06/21 12:34:10;;;;;;;1.17;0.73;;;;;;;;;;4976831;28;20129;-75
2022/06/21 12:36:48;;;;;;;1.90;0.90;;;;;;;;;;4976901;28;20339;-76
2022/06/21 12:39:18;;;;;;;3.38;1.00;;;;;;;;;;4977231;28;20045;-76
2022/06/21 12:41:56;;;;;;;3.58;1.00;;;;;;;;;;4976363;28;20113;-76
2022/06/21 12:44:42;;;;;;;2.17;0.98;;;;;;;;;;4976845;28;20026;-75
2022/06/21 12:47:21;;;;;;;1.95;0.90;;;;;;;;;;4993977;28;20053;-76
2022/06/21 12:50:07;;;;;;;2.17;0.85;;;;;;;;;;4976656;28;20037;-76
2022/06/21 12:52:54;;;;;;;1.10;0.82;;;;;;;;;;4993780;28;20093;-77
2022/06/21 12:55:29;;;;;;;1.42;0.85;;;;;;;;;;4993960;28;20463;-76
2022/06/21 12:57:57;;;;;;;2.17;0.70;;;;;;;;;;4976351;28;20034;-76
2022/06/21 13:00:51;;;;;;;4.40;1.38;;;;;;;;;;4976476;28;20022;-76
2022/06/21 13:03:37;;;;;;;2.55;0.90;;;;;;;;;;4976600;28;20495;-77
2022/06/21 13:06:24;;;;;;;3.67;0.95;;;;;;;;;;4977106;28;20027;-77
2022/06/21 13:08:54;;;;;;;3.30;0.80;;;;;;;;;;4977690;28;20030;-78
2022/06/21 13:11:49;;;;;;;2.28;0.80;;;;;;;;;;4978444;28;20578;-77
2022/06/21 13:14:36;;;;;;;1.25;0.90;;;;;;;;;;4978142;28;20092;-76
2022/06/21 13:17:32;;;;;;;1.88;0.75;;;;;;;;;;4977310;28;20026;-76
2022/06/21 13:20:00;;;;;;;2.72;0.90;;;;;;;;;;4997274;28;20094;-77
2022/06/21 13:22:50;;;;;;;5.65;1.52;;;;;;;;;;4981282;28;20085;-77
2022/06/21 13:25:21;;;;;;;5.78;1.50;;;;;;;;;;4980356;28;20581;-77
2022/06/21 13:28:01;;;;;;;5.15;1.52;;;;;;;;;;4999668;28;20456;-76
2022/06/21 13:30:50;;;;;;;5.70;1.45;;;;;;;;;;4997790;28;20037;-77
2022/06/21 13:33:41;;;;;;;5.00;1.17;;;;;;;;;;4980688;28;20018;-76
2022/06/21 13:36:23;;;;;;;4.00;1.35;;;;;;;;;;4979515;28;20030;-76
2022/06/21 13:38:58;;;;;;;4.40;1.13;;;;;;;;;;4981644;28;20026;-77
2022/06/21 13:44:21;;;;;;;4.70;1.63;;;;;;;;;;4986086;28;20509;-76
2022/06/21 13:46:54;;;;;;;2.75;1.13;;;;;;;;;;4983018;28;20077;-76
2022/06/21 13:49:24;;;;;;;2.10;1.10;;;;;;;;;;4970728;28;20026;-78
2022/06/21 13:51:53;;;;;;;5.47;1.20;;;;;;;;;;4969292;28;20026;-77
2022/06/21 13:54:36;;;;;;;4.05;1.20;;;;;;;;;;4966874;28;20063;-76
2022/06/21 13:57:38;;;;;;;7.75;1.60;;;;;;;;;;4969615;28;20030;-77
2022/06/21 14:00:05;;;;;;;6.30;1.20;;;;;;;;;;4982988;28;20042;-77
2022/06/21 14:02:30;;;;;;;4.88;1.50;;;;;;;;;;4984293;28;20030;-77
2022/06/21 14:05:14;;;;;;;7.93;1.30;;;;;;;;;;5001869;28;20114;-77
2022/06/21 14:07:58;;;;;;;;;;;;;;;;;;4984155;28;20033;-78
2022/06/21 14:10:27;;;;;;;1.52;1.10;;;;;;;;;;4985147;28;19988;-78
2022/06/21 14:13:01;;;;;;;8.25;1.08;;;;;;;;;;4970220;28;20453;-78
2022/06/21 14:16:08;;;;;;;2.88;0.95;;;;;;;;;;4988473;28;20045;-76
2022/06/21 14:18:43;;;;;;;2.83;1.63;;;;;;;;;;4911677;29;20174;-78
2022/06/21 14:21:26;;;;;;;1.90;1.10;;;;;;;;;;4933255;29;20099;-77
2022/06/21 14:24:08;;;;;;;6.07;1.35;;;;;;;;;;4929025;29;20066;-77
2022/06/21 14:26:44;;;;;;;2.17;1.02;;;;;;;;;;4930291;29;20047;-78
2022/06/21 14:29:12;;;;;;;1.25;1.00;;;;;;;;;;4927782;29;20031;-78
2022/06/21 14:31:57;;;;;;;3.80;1.52;;;;;;;;;;4926953;29;20023;-78
2022/06/21 14:34:38;;;;;;;1.75;1.02;;;;;;;;;;4914063;29;20023;-78
2022/06/21 14:37:19;;;;;;;5.00;1.23;;;;;;;;;;4948216;29;20059;-78
2022/06/21 14:40:33;;;;;;;4.18;1.33;;;;;;;;;;4926018;29;20056;-77
2022/06/21 14:43:26;;;;;;;4.32;1.50;;;;;;;;;;4922404;29;20153;-78
2022/06/21 14:46:24;;;;;;;3.58;1.30;;;;;;;;;;4923069;29;20179;-78
2022/06/21 14:49:15;;;;;;;3.08;1.20;;;;;;;;;;4914042;29;20556;-78
2022/06/21 14:52:02;;;;;;;17.17;4.03;;;;;;;;;;4944532;28;20110;-78
2022/06/21 14:54:43;;;;;;;9.75;2.80;;;;;;;;;;4976145;28;20089;-79
2022/06/21 14:57:28;;;;;;;5.78;1.60;;;;;;;;;;4961617;28;20026;-79
2022/06/21 15:00:12;;;;;;;4.93;2.05;;;;;;;;;;4979242;28;20085;-79
2022/06/21 15:02:52;;;;;;;4.38;1.30;;;;;;;;;;4980061;28;20022;-77
2022/06/21 15:05:36;;;;;;;4.43;1.27;;;;;;;;;;4997148;28;20030;-78
2022/06/21 15:08:11;;;;;;;2.65;1.27;;;;;;;;;;4979147;28;20121;-78
2022/06/21 15:10:41;;;;;;;4.03;1.10;;;;;;;;;;4962929;28;20078;-78
2022/06/21 15:13:17;;;;;;;2.97;1.08;;;;;;;;;;4963537;28;20502;-78
2022/06/21 15:15:44;;;;;;;1.40;1.17;;;;;;;;;;4995947;28;20030;-76
2022/06/21 15:18:29;;;;;;;2.53;1.08;;;;;;;;;;4979076;28;20026;-77
2022/06/21 15:21:14;;;;;;;3.33;1.02;;;;;;;;;;4980189;28;20045;-76
2022/06/21 15:23:51;;;;;;;2.05;0.90;;;;;;;;;;4979389;28;20034;-77
2022/06/21 15:26:33;;;;;;;4.05;1.10;;;;;;;;;;5000372;28;20046;-77
2022/06/21 15:29:16;;;;;;;1.83;1.20;;;;;;;;;;4981451;28;20124;-78
2022/06/21 15:31:47;;;;;;;1.63;1.10;;;;;;;;;;4963655;28;20388;-78
2022/06/21 15:34:23;;;;;;;1.67;0.90;;;;;;;;;;4981169;28;20018;-78
2022/06/21 15:37:15;;;;;;;2.58;1.10;;;;;;;;;;4962232;28;20089;-77
2022/06/21 15:39:49;;;;;;;2.50;1.13;;;;;;;;;;4939807;28;20046;-77
2022/06/21 15:42:20;;;;;;;4.25;1.30;;;;;;;;;;4962186;28;20078;-78
2022/06/21 15:45:05;;;;;;;3.17;1.17;;;;;;;;;;4978452;28;20102;-78
2022/06/21 15:50:52;;;;;;;1.23;0.93;;;;;;;;;;4996511;28;20387;-77
2022/06/21 15:53:27;;;;;;;2.78;1.08;;;;;;;;;;4996289;28;20050;-77
2022/06/21 15:56:03;;;;;;;1.25;0.95;;;;;;;;;;4982035;28;20076;-77
2022/06/21 15:58:43;;;;;;;3.42;1.30;;;;;;;;;;4979363;28;20033;-77